Terminal Aerodrome Forecast
Issued by NWS

Home | Current Version | Previous Version | Text Only | Print | Product List | Glossary On
Versions: 1 2 3 4 5 6 7 8 9 10 11 12 13 14 15
000
FTUS46 KMTR 221723
TAFSTS
TAF
KSTS 221723Z 2218/2318 34003KT P6SM FEW010 SCT030 BKN250
     FM222100 30011G18KT P6SM FEW035 SCT250
     FM230400 30008KT P6SM FEW035 FEW250
     FM230800 31003KT 1/2SM FG VV002
     FM231600 34005KT P6SM SKC=

USA.gov is the U.S. government's official web portal to all federal, state and local government web resources and services.